Time;durP1;ratioP1;P1;durP2;ratioP2;P2;SDS_P1;SDS_P2;PMS_P1;PMS_P2;Temp;Humidity;BMP_temperature;BMP_pressure;BME280_temperature;BME280_humidity;BME280_pressure;Samples;Min_cycle;Max_cycle;Signal;HPM_P1;HPM_P2
2024/03/18 00:02:11;;;;;;;5.20;4.85;;;8.80;99.90;;;9.57;100.00;98061.38;10361458;28;20229;-67
2024/03/18 00:07:13;;;;;;;5.47;5.00;;;8.80;99.90;;;9.58;100.00;98061.44;10352431;28;20313;-67
2024/03/18 00:12:17;;;;;;;6.43;5.32;;;8.90;99.90;;;9.56;100.00;98067.25;10352925;28;20316;-66
2024/03/18 00:17:19;;;;;;;6.18;4.90;;;8.90;99.90;;;9.53;100.00;98060.28;10352474;28;20783;-66
2024/03/18 00:22:21;;;;;;;6.72;5.28;;;8.90;99.90;;;9.55;100.00;98053.59;10369793;28;20324;-67
2024/03/18 00:27:25;;;;;;;5.22;4.60;;;8.80;99.90;;;9.47;100.00;98049.66;10353406;28;20309;-66
2024/03/18 00:32:30;;;;;;;6.32;5.75;;;8.70;99.90;;;9.36;100.00;98043.91;10351011;28;20325;-66
2024/03/18 00:37:32;;;;;;;6.20;5.60;;;8.70;99.90;;;9.37;100.00;98035.44;10361838;28;20349;-67
2024/03/18 00:42:36;;;;;;;4.70;4.30;;;8.60;99.90;;;9.27;100.00;98025.47;10368667;28;20272;-67
2024/03/18 00:47:38;;;;;;;5.32;4.85;;;8.60;99.90;;;9.18;100.00;98020.63;10368639;28;20258;-68
2024/03/18 00:52:41;;;;;;;5.25;4.75;;;8.60;99.90;;;9.13;100.00;98018.53;10354993;28;20257;-67
2024/03/18 00:57:44;;;;;;;5.80;5.30;;;8.50;99.90;;;9.15;100.00;98019.53;10356863;28;20289;-67
2024/03/18 01:02:46;;;;;;;5.82;5.25;;;8.60;99.90;;;9.21;100.00;98009.72;10355120;28;20257;-65
2024/03/18 01:07:49;;;;;;;5.90;5.30;;;8.60;99.90;;;9.17;100.00;98015.44;10356422;28;20672;-67
2024/03/18 01:12:53;;;;;;;5.50;5.10;;;8.50;99.90;;;9.20;100.00;98013.06;10371547;28;20261;-65
2024/03/18 01:17:55;;;;;;;6.80;5.50;;;8.60;99.90;;;9.35;100.00;98006.41;10354263;28;20754;-67
2024/03/18 01:22:57;;;;;;;5.72;5.22;;;8.60;99.90;;;9.32;100.00;98003.66;10326328;28;20653;-66
2024/03/18 01:28:00;;;;;;;6.60;6.00;;;8.60;99.90;;;9.34;100.00;97994.44;10346634;28;20321;-67
2024/03/18 01:33:03;;;;;;;5.65;5.10;;;8.60;99.90;;;9.29;100.00;97987.28;10337952;28;20674;-66
2024/03/18 01:38:05;;;;;;;6.30;5.78;;;8.60;99.90;;;9.32;100.00;97973.03;10354547;28;20250;-67
2024/03/18 01:43:10;;;;;;;8.93;8.02;;;8.60;99.90;;;9.27;100.00;97964.25;10339124;28;20257;-66
2024/03/18 01:48:12;;;;;;;8.18;7.43;;;8.60;99.90;;;9.21;100.00;97958.72;10368988;28;20330;-67
2024/03/18 01:53:15;;;;;;;6.25;5.70;;;8.50;99.90;;;9.30;100.00;97959.34;10345245;28;20325;-67
2024/03/18 01:58:21;;;;;;;5.88;5.25;;;8.50;99.90;;;9.16;100.00;97942.28;10341272;28;20264;-67
2024/03/18 02:03:24;;;;;;;6.20;5.60;;;8.50;99.90;;;9.12;100.00;97935.19;10354192;28;20257;-67
2024/03/18 02:08:26;;;;;;;6.83;5.13;;;8.50;99.90;;;9.14;100.00;97938.75;10368874;28;20668;-67
2024/03/18 02:13:32;;;;;;;6.07;5.32;;;8.40;99.90;;;9.18;100.00;97941.56;10355125;28;20258;-66
2024/03/18 02:18:34;;;;;;;5.25;4.85;;;8.50;99.90;;;9.32;100.00;97945.00;10352329;28;20246;-66
2024/03/18 02:23:38;;;;;;;5.82;5.20;;;8.50;99.90;;;9.16;100.00;97938.06;10354272;28;20254;-64
2024/03/18 02:28:42;;;;;;;6.57;5.57;;;8.50;99.90;;;9.16;100.00;97929.53;10346541;28;20253;-66
2024/03/18 02:33:45;;;;;;;6.43;5.82;;;8.50;99.90;;;9.22;100.00;97912.06;10352894;28;20607;-67
2024/03/18 02:38:48;;;;;;;5.97;5.47;;;8.50;99.90;;;9.28;100.00;97909.88;10352606;28;20729;-67
2024/03/18 02:43:50;;;;;;;5.82;5.32;;;8.50;99.90;;;9.13;100.00;97893.59;10348575;28;20257;-67
2024/03/18 02:48:52;;;;;;;5.97;5.50;;;8.40;99.90;;;9.09;100.00;97896.75;10350406;28;20730;-67
2024/03/18 02:53:56;;;;;;;6.18;5.63;;;8.50;99.90;;;9.05;100.00;97895.69;10353825;28;20733;-67
2024/03/18 02:58:58;;;;;;;7.05;6.15;;;8.40;99.90;;;9.01;100.00;97889.53;10352833;28;20262;-66
2024/03/18 03:04:00;;;;;;;6.63;5.95;;;8.40;99.90;;;9.06;100.00;97894.91;10376587;28;20258;-65
2024/03/18 03:09:04;;;;;;;6.60;6.07;;;8.40;99.90;;;9.12;100.00;97884.22;10361480;28;20264;-67
2024/03/18 03:14:08;;;;;;;6.80;6.10;;;8.50;99.90;;;9.17;100.00;97883.72;10359769;28;20280;-67
2024/03/18 03:19:10;;;;;;;6.38;5.88;;;8.50;99.90;;;9.23;100.00;97878.09;10359276;28;20733;-65
2024/03/18 03:24:14;;;;;;;6.38;5.85;;;8.50;99.90;;;9.19;100.00;97878.72;10361231;28;20369;-67
2024/03/18 03:29:16;;;;;;;6.43;5.93;;;8.50;99.90;;;9.19;100.00;97877.03;10375299;28;20261;-67
2024/03/18 03:34:18;;;;;;;7.13;6.63;;;8.50;99.90;;;9.20;100.00;97877.91;10372224;28;20268;-67
2024/03/18 03:39:23;;;;;;;7.00;6.30;;;8.50;99.90;;;9.18;100.00;97875.25;10358596;28;20270;-67
2024/03/18 03:44:25;;;;;;;7.57;6.93;;;8.50;99.90;;;9.21;100.00;97860.19;10357925;28;20326;-67
2024/03/18 03:49:28;;;;;;;7.43;6.72;;;8.50;99.90;;;9.19;100.00;97865.97;10356731;28;20299;-66
2024/03/18 03:54:31;;;;;;;6.55;5.95;;;8.50;99.90;;;9.20;100.00;97853.28;10371868;28;20246;-68
2024/03/18 03:59:33;;;;;;;7.07;6.47;;;8.40;99.90;;;9.15;100.00;97851.25;10357555;28;20325;-67
2024/03/18 04:04:35;;;;;;;7.15;6.47;;;8.40;99.90;;;9.17;100.00;97852.22;10357685;28;20684;-67
2024/03/18 04:09:39;;;;;;;6.40;5.70;;;8.40;99.90;;;9.14;100.00;97855.47;10374023;28;20276;-67
2024/03/18 04:14:41;;;;;;;6.03;5.47;;;8.40;99.90;;;9.22;100.00;97850.84;10357867;28;20245;-65
2024/03/18 04:19:44;;;;;;;5.60;5.10;;;8.50;99.90;;;9.26;100.00;97847.69;10320616;28;20278;-66
2024/03/18 04:24:47;;;;;;;7.07;6.05;;;8.40;99.90;;;9.10;100.00;97832.22;10371583;28;20242;-66
2024/03/18 04:29:49;;;;;;;5.97;5.57;;;8.40;99.90;;;9.10;100.00;97828.03;10357117;28;20261;-66
2024/03/18 04:34:51;;;;;;;6.00;5.50;;;8.40;99.90;;;9.16;100.00;97830.97;10329364;28;20246;-66
2024/03/18 04:39:55;;;;;;;6.45;5.85;;;8.40;99.90;;;9.14;100.00;97816.34;10357955;28;21027;-66
2024/03/18 04:44:57;;;;;;;6.05;5.35;;;8.40;99.90;;;9.18;100.00;97818.28;10368412;28;20242;-67
2024/03/18 04:49:59;;;;;;;5.93;5.43;;;8.40;99.90;;;9.05;100.00;97813.25;10352627;28;20258;-66
2024/03/18 04:55:03;;;;;;;6.60;5.95;;;8.30;99.90;;;9.09;100.00;97810.06;10355786;28;20246;-67
2024/03/18 05:00:09;;;;;;;6.07;5.47;;;8.40;99.90;;;9.15;100.00;97810.44;10374433;28;20299;-67
2024/03/18 05:05:13;;;;;;;6.50;5.88;;;8.40;99.90;;;9.16;100.00;97807.13;10347445;28;20321;-67
2024/03/18 05:10:21;;;;;;;7.20;6.53;;;8.40;99.90;;;9.24;100.00;97801.72;10350091;28;20361;-66
2024/03/18 05:15:23;;;;;;;6.10;5.55;;;8.40;99.90;;;9.11;100.00;97795.75;10351768;28;20231;-66
2024/03/18 05:20:25;;;;;;;6.50;6.05;;;8.40;99.90;;;9.13;100.00;97796.72;10348949;28;20775;-67
2024/03/18 05:25:29;;;;;;;7.53;6.93;;;8.40;99.90;;;9.07;100.00;97797.25;10341868;28;20329;-68
2024/03/18 05:30:31;;;;;;;7.70;7.00;;;8.40;99.90;;;9.10;100.00;97789.78;10366037;28;22687;-68
2024/03/18 05:35:33;;;;;;;8.15;7.45;;;8.40;99.90;;;9.10;100.00;97796.53;10345700;28;20313;-66
2024/03/18 05:40:36;;;;;;;8.52;7.53;;;8.40;99.90;;;9.09;100.00;97789.69;10351132;28;20242;-67
2024/03/18 05:45:39;;;;;;;8.07;7.38;;;8.40;99.90;;;9.14;100.00;97789.19;10355528;28;20268;-68
2024/03/18 05:50:41;;;;;;;8.02;7.13;;;8.50;99.90;;;9.19;100.00;97795.44;10351008;28;20253;-67
2024/03/18 05:55:45;;;;;;;7.72;7.13;;;8.50;99.90;;;9.19;100.00;97792.03;10343457;28;20679;-67
2024/03/18 06:00:47;;;;;;;8.02;6.82;;;8.60;99.90;;;9.27;100.00;97787.38;10367899;28;20257;-67
2024/03/18 06:05:49;;;;;;;9.82;7.93;;;8.60;99.90;;;9.27;100.00;97784.81;10354252;28;20254;-67
2024/03/18 06:10:53;;;;;;;10.70;9.80;;;8.60;99.90;;;9.36;100.00;97781.16;10352467;28;20711;-66
2024/03/18 06:15:55;;;;;;;10.70;9.70;;;8.60;99.90;;;9.41;100.00;97777.22;10352823;28;20258;-67
2024/03/18 06:20:57;;;;;;;11.57;10.48;;;8.70;99.90;;;9.50;100.00;97788.75;10348715;28;20737;-67
2024/03/18 06:26:03;;;;;;;10.40;9.40;;;8.70;99.90;;;9.51;100.00;97775.22;10369245;28;20787;-66
2024/03/18 06:31:05;;;;;;;9.13;8.23;;;8.70;99.90;;;9.59;100.00;97779.13;10370036;28;20261;-67
2024/03/18 06:36:09;;;;;;;8.85;8.00;;;8.80;99.90;;;9.61;100.00;97777.50;10352811;28;20261;-67
2024/03/18 06:41:13;;;;;;;9.23;8.23;;;8.90;99.90;;;9.74;100.00;97768.94;10353045;28;20262;-68
2024/03/18 06:46:15;;;;;;;8.98;8.25;;;8.90;99.90;;;9.65;100.00;97776.94;10367551;28;20325;-67
2024/03/18 06:51:17;;;;;;;9.68;8.77;;;8.90;99.90;;;9.66;100.00;97777.00;10353446;28;20261;-67
2024/03/18 06:56:21;;;;;;;9.52;8.32;;;8.90;99.90;;;9.70;100.00;97781.50;10351458;28;20807;-68
2024/03/18 07:01:24;;;;;;;8.93;7.93;;;9.00;99.90;;;9.67;100.00;97782.97;10353299;28;20253;-68
2024/03/18 07:06:26;;;;;;;8.65;7.75;;;9.00;99.90;;;9.78;100.00;97778.50;10353325;28;20246;-68
2024/03/18 07:11:30;;;;;;;9.18;8.10;;;9.00;99.90;;;9.81;100.00;97771.91;10370275;28;20819;-67
2024/03/18 07:16:32;;;;;;;8.77;7.88;;;9.10;99.90;;;9.85;100.00;97775.53;10340148;28;20250;-67
2024/03/18 07:21:34;;;;;;;9.35;8.65;;;9.10;99.90;;;9.88;100.00;97773.16;10369427;28;20251;-67
2024/03/18 07:26:37;;;;;;;10.68;9.75;;;9.10;99.90;;;10.04;100.00;97774.91;10351301;28;20269;-67
2024/03/18 07:31:40;;;;;;;9.88;8.90;;;9.30;99.90;;;10.12;100.00;97781.34;10353067;28;20264;-67
2024/03/18 07:36:42;;;;;;;9.85;9.05;;;9.40;99.90;;;10.15;100.00;97778.97;10352215;28;20767;-67
2024/03/18 07:41:45;;;;;;;9.52;8.63;;;9.40;99.90;;;10.12;100.00;97784.78;10366276;28;20250;-66
2024/03/18 07:46:48;;;;;;;10.07;9.07;;;9.40;99.90;;;10.08;100.00;97784.53;10348963;28;20638;-67
2024/03/18 07:51:50;;;;;;;9.30;8.50;;;9.40;99.90;;;10.15;100.00;97784.94;10360615;28;20670;-67
2024/03/18 07:56:54;;;;;;;8.70;7.93;;;9.50;99.90;;;10.13;100.00;97791.66;10358966;28;20756;-66
2024/03/18 08:01:56;;;;;;;9.13;8.23;;;9.40;99.90;;;10.13;100.00;97785.69;10359747;28;20266;-67
2024/03/18 08:06:58;;;;;;;8.40;7.70;;;9.40;99.90;;;10.13;100.00;97799.31;10358277;28;20242;-66
2024/03/18 08:12:02;;;;;;;8.73;7.88;;;9.40;99.90;;;10.08;100.00;97799.84;10375272;28;20714;-67
2024/03/18 08:17:04;;;;;;;8.90;8.20;;;9.40;99.90;;;10.04;100.00;97800.44;10357779;28;20272;-67
2024/03/18 08:22:11;;;;;;;9.45;8.55;;;9.40;99.90;;;10.09;100.00;97794.81;10357529;28;20257;-66
2024/03/18 08:27:15;;;;;;;10.30;9.40;;;9.50;99.90;;;10.13;100.00;97799.31;10357837;28;20732;-67
2024/03/18 08:32:17;;;;;;;10.93;9.63;;;9.60;99.90;;;10.23;100.00;97803.28;10357743;28;20337;-67
2024/03/18 08:37:21;;;;;;;11.43;10.32;;;9.70;99.90;;;10.37;100.00;97801.56;10357906;28;20261;-68
2024/03/18 08:42:24;;;;;;;12.00;10.20;;;9.80;99.90;;;10.57;100.00;97800.13;10356877;28;20250;-67
2024/03/18 08:47:26;;;;;;;11.93;10.73;;;9.90;99.90;;;10.71;100.00;97800.88;10357763;28;20258;-67
2024/03/18 08:52:28;;;;;;;10.93;9.93;;;10.00;99.90;;;10.76;100.00;97799.47;10356781;28;20313;-67
2024/03/18 08:57:32;;;;;;;11.15;10.10;;;10.10;99.90;;;10.76;100.00;97787.56;10355534;28;20780;-67
2024/03/18 09:02:34;;;;;;;11.27;10.15;;;10.20;99.90;;;10.87;100.00;97793.25;10355550;28;20250;-67
2024/03/18 09:07:36;;;;;;;12.15;10.93;;;10.30;99.90;;;10.98;100.00;97788.72;10356449;28;20261;-67
2024/03/18 09:12:40;;;;;;;10.82;9.90;;;10.30;99.90;;;11.04;100.00;97783.94;10356949;28;20273;-66
2024/03/18 09:17:43;;;;;;;12.38;9.95;;;10.40;99.90;;;11.16;100.00;97784.63;10373302;28;20255;-67
2024/03/18 09:22:45;;;;;;;11.23;10.10;;;10.50;99.90;;;11.31;100.00;97781.09;10371584;28;20722;-67
2024/03/18 09:27:49;;;;;;;11.00;9.88;;;10.60;99.90;;;11.30;100.00;97784.44;10355920;28;20262;-67
2024/03/18 09:32:51;;;;;;;11.40;10.40;;;10.60;99.90;;;11.35;100.00;97785.56;10355702;28;20281;-67
2024/03/18 09:37:53;;;;;;;11.68;10.57;;;10.70;99.90;;;11.42;100.00;97790.22;10356129;28;20668;-66
2024/03/18 09:42:57;;;;;;;17.60;12.05;;;10.80;99.90;;;11.41;100.00;97791.88;10349787;28;20249;-67
2024/03/18 09:48:00;;;;;;;12.52;10.45;;;10.90;99.90;;;11.42;100.00;97793.66;10349678;28;20254;-67
2024/03/18 09:53:02;;;;;;;10.93;9.95;;;10.80;99.90;;;11.55;100.00;97794.28;10370888;28;20261;-67
2024/03/18 09:58:15;;;;;;;12.00;10.73;;;10.90;99.90;;;11.63;100.00;97787.91;10369568;28;20677;-68
2024/03/18 10:03:18;;;;;;;11.70;10.20;;;11.00;99.90;;;11.69;100.00;97799.31;10338742;28;20332;-67
2024/03/18 10:08:21;;;;;;;14.90;10.25;;;11.00;99.90;;;11.70;100.00;97801.09;10354758;28;20320;-67
2024/03/18 10:13:24;;;;;;;12.10;10.88;;;11.00;99.90;;;11.66;100.00;97798.28;10370667;28;20321;-67
2024/03/18 10:18:27;;;;;;;11.73;10.45;;;11.00;99.90;;;11.88;100.00;97797.75;10353065;28;20260;-68
2024/03/18 10:23:29;;;;;;;10.82;9.55;;;11.20;99.90;;;11.86;100.00;97807.91;10353714;28;20760;-67
2024/03/18 10:28:32;;;;;;;11.38;9.52;;;11.20;99.90;;;11.94;100.00;97800.63;10345588;28;20258;-66
2024/03/18 10:33:35;;;;;;;12.75;11.45;;;11.30;99.90;;;12.15;100.00;97804.25;10371253;28;20254;-67
2024/03/18 10:38:44;;;;;;;16.10;11.40;;;11.40;99.90;;;12.17;100.00;97804.34;10353015;28;20783;-66
2024/03/18 10:43:53;;;;;;;15.32;11.60;;;11.50;99.90;;;12.33;100.00;97805.97;10353236;28;20261;-66
2024/03/18 10:48:57;;;;;;;12.27;10.15;;;11.60;99.90;;;12.32;100.00;97807.66;10350935;28;20515;-67
2024/03/18 10:54:01;;;;;;;9.80;8.90;;;11.60;99.90;;;12.34;100.00;97813.75;10352875;28;20687;-67
2024/03/18 10:59:06;;;;;;;10.35;8.40;;;11.60;99.90;;;12.30;100.00;97818.63;10348900;28;20257;-67
2024/03/18 11:04:19;;;;;;;9.48;8.35;;;11.60;99.90;;;12.32;100.00;97817.03;10348090;28;20260;-68
2024/03/18 11:09:24;;;;;;;8.50;7.70;;;11.60;99.90;;;12.61;100.00;97814.19;10351002;28;20668;-67
2024/03/18 11:14:30;;;;;;;6.53;5.43;;;11.80;99.90;;;12.62;100.00;97815.97;10359782;28;20246;-68
2024/03/18 11:19:33;;;;;;;5.40;4.80;;;11.70;99.90;;;12.53;100.00;97819.75;10351262;28;20257;-68
2024/03/18 11:24:36;;;;;;;6.20;5.20;;;11.80;99.90;;;12.75;100.00;97819.97;10357635;28;20726;-69
2024/03/18 11:29:40;;;;;;;7.05;5.07;;;12.00;99.90;;;12.90;100.00;97822.38;10376338;28;20273;-69
2024/03/18 11:34:42;;;;;;;6.78;5.13;;;12.10;99.90;;;13.11;98.59;97816.53;10359178;28;20649;-67
2024/03/18 11:39:45;;;;;;;18.45;6.47;;;12.20;99.90;;;12.99;99.41;97822.84;10360800;28;20741;-66
2024/03/18 11:44:52;;;;;;;5.57;4.50;;;12.20;99.90;;;13.20;98.33;97827.22;10360146;28;20879;-67
2024/03/18 11:50:03;;;;;;;13.35;6.82;;;12.50;99.90;;;13.12;98.66;97831.09;10354716;28;20257;-66
2024/03/18 11:55:07;;;;;;;9.55;5.97;;;12.20;99.90;;;12.93;100.00;97832.78;10358244;28;20249;-67
2024/03/18 12:00:13;;;;;;;13.45;7.45;;;12.10;99.90;;;12.93;100.00;97832.78;10375087;28;20253;-66
2024/03/18 12:05:15;;;;;;;8.20;7.50;;;12.10;99.90;;;12.71;100.00;97835.16;10356536;28;20852;-66
2024/03/18 12:10:24;;;;;;;6.22;5.70;;;12.00;99.90;;;12.55;100.00;97829.28;10359027;28;20261;-67
2024/03/18 12:15:28;;;;;;;8.05;7.28;;;11.90;99.90;;;12.40;100.00;97833.66;10359153;28;20245;-67
2024/03/18 12:20:31;;;;;;;8.98;7.03;;;11.70;99.90;;;12.25;100.00;97835.47;10356831;28;20772;-66
2024/03/18 12:30:59;;;;;;;8.13;7.32;;;11.70;99.90;;;12.26;100.00;97839.78;10357548;28;20733;-66
2024/03/18 12:36:06;;;;;;;8.80;7.90;;;11.60;99.90;;;12.12;100.00;97837.41;10358931;28;20304;-66
2024/03/18 12:41:15;;;;;;;7.65;6.88;;;11.50;99.90;;;12.00;100.00;97829.09;10347817;28;20246;-69
2024/03/18 12:46:23;;;;;;;8.60;6.28;;;11.40;99.90;;;11.86;100.00;97832.66;10373762;28;20706;-69
2024/03/18 12:51:27;;;;;;;7.13;6.53;;;11.30;99.90;;;12.03;100.00;97831.81;10357687;28;20265;-69
2024/03/18 12:56:30;;;;;;;7.85;6.43;;;11.40;99.90;;;11.96;100.00;97837.44;10358115;28;20254;-67
2024/03/18 13:01:33;;;;;;;6.15;5.53;;;11.40;99.90;;;12.05;100.00;97835.34;10351176;28;20261;-68
2024/03/18 13:06:35;;;;;;;5.55;5.05;;;11.40;99.90;;;12.04;100.00;97841.25;10374144;28;20242;-68
2024/03/18 13:11:38;;;;;;;5.82;4.57;;;11.40;99.90;;;12.05;100.00;97840.47;10355592;28;20392;-68
2024/03/18 13:16:42;;;;;;;7.93;5.53;;;11.40;99.90;;;11.93;100.00;97840.72;10356471;28;20261;-68
2024/03/18 13:21:44;;;;;;;6.20;4.80;;;11.40;99.90;;;11.92;100.00;97840.63;10356622;28;20257;-67
2024/03/18 13:26:46;;;;;;;6.68;5.60;;;11.40;99.90;;;11.86;100.00;97845.44;10353911;28;20500;-66
2024/03/18 13:31:51;;;;;;;6.60;5.72;;;11.30;99.90;;;11.79;100.00;97838.19;10372763;28;20261;-67
2024/03/18 13:36:53;;;;;;;5.35;4.68;;;11.20;99.90;;;11.76;100.00;97831.28;10349047;28;20288;-68
2024/03/18 13:41:58;;;;;;;5.93;5.30;;;11.20;99.90;;;11.89;100.00;97832.81;10354788;28;20246;-69
2024/03/18 13:47:02;;;;;;;6.40;5.47;;;11.30;99.90;;;11.95;100.00;97833.97;10353234;28;20314;-67
2024/03/18 13:52:05;;;;;;;5.72;4.88;;;11.30;99.90;;;12.07;100.00;97840.53;10342364;28;20317;-66
2024/03/18 13:57:10;;;;;;;6.80;4.82;;;11.50;99.90;;;12.23;100.00;97837.06;10354187;28;20254;-66
2024/03/18 14:02:14;;;;;;;6.35;5.25;;;11.60;99.90;;;12.18;100.00;97840.28;10354422;28;20258;-66
2024/03/18 14:07:17;;;;;;;6.85;5.20;;;11.60;99.90;;;12.24;100.00;97844.81;10368943;28;20249;-67
2024/03/18 14:12:21;;;;;;;4.65;3.97;;;11.70;99.90;;;12.31;100.00;97835.78;10369170;28;20733;-68
2024/03/18 14:17:24;;;;;;;6.50;4.03;;;11.70;99.90;;;12.25;100.00;97848.28;10367200;28;20264;-69
2024/03/18 14:22:27;;;;;;;4.72;3.25;;;11.70;99.90;;;12.47;100.00;97835.72;10352207;28;20250;-68
2024/03/18 14:27:29;;;;;;;4.25;3.55;;;11.80;99.90;;;12.75;100.00;97837.06;10370815;28;20264;-67
2024/03/18 14:32:32;;;;;;;5.97;5.38;;;12.00;99.90;;;12.60;100.00;97840.66;10369894;28;20242;-66
2024/03/18 14:37:34;;;;;;;5.25;4.85;;;11.90;99.90;;;12.54;100.00;97842.91;10353915;28;20376;-65
2024/03/18 14:42:37;;;;;;;5.90;5.28;;;11.80;99.90;;;12.49;100.00;97839.25;10353514;28;20254;-66
2024/03/18 14:47:40;;;;;;;6.65;6.03;;;11.80;99.90;;;12.42;100.00;97846.53;10354053;28;20250;-66
2024/03/18 14:52:43;;;;;;;4.18;3.78;;;11.70;99.90;;;12.33;100.00;97855.56;10364276;28;20317;-67
2024/03/18 14:57:46;;;;;;;6.20;4.40;;;11.60;99.90;;;12.26;100.00;97863.72;10354368;28;20257;-67
2024/03/18 15:02:49;;;;;;;4.70;3.88;;;11.50;99.90;;;12.21;100.00;97862.59;10372903;28;20261;-68
2024/03/18 15:07:52;;;;;;;5.22;4.07;;;11.60;99.90;;;12.20;100.00;97860.88;10360605;28;20264;-67
2024/03/18 15:12:54;;;;;;;3.25;3.05;;;11.60;99.90;;;12.23;100.00;97855.88;10379505;28;20263;-68
2024/03/18 15:17:58;;;;;;;3.60;3.28;;;11.60;99.90;;;12.13;100.00;97858.78;10381151;28;20261;-68
2024/03/18 15:23:01;;;;;;;5.38;3.90;;;11.50;99.90;;;12.11;100.00;97861.28;10376971;28;20269;-67
2024/03/18 15:28:05;;;;;;;4.50;4.18;;;11.50;99.90;;;12.29;100.00;97866.44;10365873;28;20726;-68
2024/03/18 15:33:09;;;;;;;4.10;3.80;;;11.60;99.90;;;12.17;100.00;97866.72;10363475;28;20733;-67
2024/03/18 15:38:11;;;;;;;5.55;3.88;;;11.50;99.90;;;12.13;100.00;97869.03;10357928;28;20288;-68
2024/03/18 15:43:14;;;;;;;4.32;3.92;;;11.50;99.90;;;12.14;100.00;97866.56;10351439;28;20317;-67
2024/03/18 15:48:17;;;;;;;4.32;3.55;;;11.50;99.90;;;12.13;100.00;97869.94;10372687;28;20311;-67
2024/03/18 15:53:19;;;;;;;4.47;4.07;;;11.50;99.90;;;12.25;100.00;97863.66;10351752;28;20313;-72
2024/03/18 15:58:21;;;;;;;6.55;5.90;;;11.60;99.90;;;12.33;100.00;97855.56;10348620;28;20353;-67
2024/03/18 16:03:25;;;;;;;9.52;7.75;;;11.60;99.90;;;12.32;100.00;97860.59;10344992;28;20348;-66
2024/03/18 16:08:27;;;;;;;6.20;5.65;;;11.70;99.90;;;12.41;100.00;97855.91;10346088;28;20536;-68
2024/03/18 16:13:29;;;;;;;6.03;5.43;;;11.80;99.90;;;12.36;100.00;97862.50;10348334;28;20325;-69
2024/03/18 16:18:33;;;;;;;6.22;5.43;;;11.70;99.90;;;12.13;100.00;97864.81;10347666;28;20344;-68
2024/03/18 16:23:35;;;;;;;5.65;5.15;;;11.60;99.90;;;12.15;100.00;97870.88;10331214;28;20778;-66
2024/03/18 16:28:37;;;;;;;7.05;5.60;;;11.60;99.90;;;12.14;100.00;97879.38;10344500;28;20708;-66
2024/03/18 16:33:41;;;;;;;6.90;6.30;;;11.50;99.90;;;12.06;100.00;97883.22;10333800;28;21349;-67
2024/03/18 16:38:43;;;;;;;7.40;6.25;;;11.50;99.90;;;12.09;100.00;97878.25;10348013;28;20317;-69
2024/03/18 16:43:46;;;;;;;7.60;6.95;;;11.50;99.90;;;12.05;100.00;97891.72;10345967;28;20309;-68
2024/03/18 16:48:50;;;;;;;7.82;7.30;;;11.40;99.90;;;11.94;100.00;97888.59;10342034;28;20786;-67
2024/03/18 16:53:52;;;;;;;7.85;7.15;;;11.40;99.90;;;11.91;100.00;97902.91;10366169;28;20225;-67
2024/03/18 16:58:54;;;;;;;11.98;10.65;;;11.40;99.90;;;11.88;100.00;97915.56;10350127;28;20369;-68
2024/03/18 17:04:00;;;;;;;10.27;9.20;;;11.30;99.90;;;11.83;100.00;97907.59;10353715;28;20674;-68
2024/03/18 17:09:02;;;;;;;11.73;10.73;;;11.30;99.90;;;11.86;100.00;97910.34;10365365;28;20333;-68
2024/03/18 17:14:05;;;;;;;12.00;10.82;;;11.20;99.90;;;11.83;100.00;97912.72;10344188;28;20422;-69
2024/03/18 17:19:08;;;;;;;11.10;10.10;;;11.20;99.90;;;11.78;100.00;97926.06;10344756;28;20226;-67
2024/03/18 17:24:10;;;;;;;10.07;9.18;;;11.20;99.90;;;11.76;100.00;97936.25;10382581;22;20247;-64
2024/03/18 17:29:12;;;;;;;10.52;9.57;;;11.20;99.90;;;11.75;100.00;97941.28;10435148;28;20921;-67
2024/03/18 17:34:16;;;;;;;10.77;9.02;;;11.10;99.90;;;11.63;100.00;97937.25;10442887;28;20805;-67
2024/03/18 17:39:18;;;;;;;11.35;9.65;;;11.00;99.90;;;11.47;100.00;97950.91;10444633;28;20312;-67
2024/03/18 17:44:20;;;;;;;13.05;11.40;;;10.80;99.90;;;11.30;100.00;97950.75;10433804;28;20322;-69
2024/03/18 17:49:24;;;;;;;11.43;9.82;;;10.60;99.90;;;11.18;100.00;97949.28;10434527;28;20307;-66
2024/03/18 17:54:26;;;;;;;9.93;8.98;;;10.40;99.90;;;10.96;100.00;97964.22;10468963;28;20252;-67
2024/03/18 17:59:29;;;;;;;10.68;8.43;;;10.30;99.90;;;10.81;100.00;97965.09;10448689;28;20350;-66
2024/03/18 18:04:33;;;;;;;12.60;11.50;;;10.10;99.90;;;10.73;100.00;97980.78;10446812;28;20222;-67
2024/03/18 18:09:36;;;;;;;10.85;9.95;;;10.00;99.90;;;10.66;100.00;97992.34;10436447;28;20661;-67
2024/03/18 18:14:38;;;;;;;12.95;11.65;;;10.00;99.90;;;10.66;100.00;98001.69;10455745;28;20239;-66
2024/03/18 18:19:41;;;;;;;12.32;11.23;;;10.00;99.90;;;10.77;100.00;98010.88;10453364;28;20231;-69
2024/03/18 18:24:44;;;;;;;11.10;10.02;;;10.10;99.90;;;10.75;100.00;98018.44;10430266;28;20221;-67
2024/03/18 18:29:46;;;;;;;12.07;10.88;;;10.10;99.90;;;10.64;100.00;98031.38;10455292;28;20311;-67
2024/03/18 18:34:49;;;;;;;10.98;9.98;;;10.00;99.90;;;10.66;100.00;98028.13;10441346;28;20710;-68
2024/03/18 18:39:52;;;;;;;11.30;10.20;;;10.10;99.90;;;10.71;100.00;98044.63;10441210;28;21385;-65
2024/03/18 18:44:54;;;;;;;12.48;11.27;;;10.10;99.90;;;10.76;100.00;98044.91;10453250;28;20226;-66
2024/03/18 18:49:57;;;;;;;10.23;9.32;;;10.10;99.90;;;10.73;100.00;98044.69;10435453;28;20359;-66
2024/03/18 18:55:01;;;;;;;7.57;6.97;;;10.10;99.90;;;10.59;100.00;98044.78;10438373;28;20303;-66
2024/03/18 19:00:06;;;;;;;7.47;6.82;;;10.00;99.90;;;10.58;100.00;98047.22;10437936;28;20311;-67
2024/03/18 19:05:11;;;;;;;8.95;6.70;;;9.90;99.90;;;10.54;100.00;98050.41;10442356;28;20315;-66
2024/03/18 19:10:13;;;;;;;13.50;11.05;;;9.90;99.90;;;10.53;100.00;98051.16;10437388;28;20318;-63
2024/03/18 19:15:17;;;;;;;15.07;13.68;;;9.90;99.90;;;10.55;100.00;98052.16;10454176;28;20335;-66
2024/03/18 19:20:21;;;;;;;17.17;15.45;;;9.90;99.90;;;10.63;100.00;98061.16;10453476;28;20591;-66
2024/03/18 19:25:24;;;;;;;14.40;11.60;;;9.90;99.90;;;10.58;100.00;98053.22;10440433;28;20339;-66
2024/03/18 19:30:27;;;;;;;13.10;11.80;;;9.90;99.90;;;10.49;100.00;98052.66;10430439;28;20235;-67
2024/03/18 19:35:31;;;;;;;13.00;11.63;;;9.80;99.90;;;10.46;100.00;98046.50;10442482;28;20767;-66
2024/03/18 19:40:34;;;;;;;17.67;12.50;;;9.80;99.90;;;10.28;100.00;98047.16;10453088;28;20243;-66
2024/03/18 19:45:37;;;;;;;21.75;14.73;;;9.60;99.90;;;10.19;100.00;98051.66;10453202;28;20308;-67
2024/03/18 19:50:40;;;;;;;18.15;15.40;;;9.60;99.90;;;10.26;100.00;98045.25;10449884;28;20299;-66
2024/03/18 19:55:42;;;;;;;23.77;19.10;;;9.60;99.90;;;10.24;100.00;98050.25;10455081;28;20614;-66
2024/03/18 20:00:51;;;;;;;21.60;19.38;;;9.60;99.90;;;10.13;100.00;98056.41;10458826;28;20870;-66
2024/03/18 20:05:55;;;;;;;32.55;19.45;;;9.40;99.90;;;10.10;100.00;98064.75;10442204;28;20224;-69
2024/03/18 20:10:57;;;;;;;46.85;22.40;;;9.50;99.90;;;10.19;100.00;98072.09;10439472;28;20596;-66
2024/03/18 20:16:00;;;;;;;47.83;20.27;;;9.60;99.90;;;10.14;100.00;98073.47;10439700;28;20231;-66
2024/03/18 20:21:05;;;;;;;33.65;14.75;;;9.50;99.90;;;10.09;100.00;98074.84;10460500;28;20228;-66
2024/03/18 20:26:07;;;;;;;58.72;12.73;;;9.50;99.90;;;10.01;100.00;98069.25;10456038;28;20579;-65
2024/03/18 20:31:09;;;;;;;84.30;16.67;;;9.30;99.90;;;9.99;100.00;98073.41;10461336;28;20319;-66
2024/03/18 20:36:13;;;;;;;22.27;12.13;;;9.40;99.90;;;10.04;100.00;98071.13;10457237;28;20667;-66
2024/03/18 20:41:16;;;;;;;38.30;15.15;;;9.40;99.90;;;10.02;100.00;98063.38;10458327;28;20307;-67
2024/03/18 20:46:18;;;;;;;29.75;15.10;;;9.40;99.90;;;10.07;100.00;98072.22;10432126;28;20323;-67
2024/03/18 20:51:21;;;;;;;16.38;14.77;;;9.40;99.90;;;10.05;100.00;98072.91;10436083;28;20813;-67
2024/03/18 20:56:24;;;;;;;14.35;12.30;;;9.30;99.90;;;9.83;100.00;98074.09;10424664;28;20234;-64